createdAt,value
2017-07-31T00:00:51.369Z,0
2017-07-31T00:01:52.798Z,0
2017-07-31T00:02:54.233Z,0
2017-07-31T00:03:55.684Z,0
2017-07-31T00:04:57.109Z,0
2017-07-31T00:05:58.648Z,0
2017-07-31T00:07:00.072Z,0
2017-07-31T00:08:01.505Z,0
2017-07-31T00:09:02.938Z,0
2017-07-31T00:10:04.361Z,0
2017-07-31T00:11:05.787Z,0
2017-07-31T00:12:07.210Z,0
2017-07-31T00:13:08.656Z,0
2017-07-31T00:14:10.091Z,0
2017-07-31T00:15:11.521Z,0
2017-07-31T00:16:12.946Z,0
2017-07-31T00:17:14.376Z,0
2017-07-31T00:18:15.803Z,0
2017-07-31T00:19:17.231Z,0
2017-07-31T00:20:18.661Z,0
2017-07-31T00:21:20.086Z,0
2017-07-31T00:22:21.516Z,0
2017-07-31T00:23:22.944Z,0
2017-07-31T00:24:24.376Z,0
2017-07-31T00:25:25.807Z,0
2017-07-31T00:26:27.237Z,0
2017-07-31T00:27:28.648Z,0
2017-07-31T00:28:30.088Z,0
2017-07-31T00:29:31.508Z,0
2017-07-31T00:30:32.937Z,0
2017-07-31T00:31:34.357Z,0
2017-07-31T00:32:35.786Z,0
2017-07-31T00:33:37.209Z,0
2017-07-31T00:34:38.654Z,0
2017-07-31T00:35:40.071Z,0
2017-07-31T00:36:41.506Z,0
2017-07-31T00:37:42.926Z,0
2017-07-31T00:38:44.352Z,0
2017-07-31T00:39:45.786Z,0
2017-07-31T00:40:47.214Z,0
2017-07-31T00:41:48.669Z,0
2017-07-31T00:42:50.096Z,0
2017-07-31T00:43:51.518Z,0
2017-07-31T00:44:52.948Z,0
2017-07-31T00:45:54.372Z,0
2017-07-31T00:46:55.801Z,0
2017-07-31T00:47:57.230Z,0
2017-07-31T00:48:58.658Z,0
2017-07-31T00:50:00.086Z,0
2017-07-31T00:51:01.529Z,0
2017-07-31T00:52:02.948Z,0
2017-07-31T00:53:04.373Z,0
2017-07-31T00:54:05.801Z,0
2017-07-31T00:55:07.227Z,0
2017-07-31T00:56:08.653Z,0
2017-07-31T00:57:10.075Z,0
2017-07-31T00:58:11.502Z,0
2017-07-31T00:59:12.939Z,0
2017-07-31T01:00:14.358Z,0
2017-07-31T01:01:15.786Z,0
2017-07-31T01:02:17.208Z,0
2017-07-31T01:03:18.631Z,0
2017-07-31T01:04:20.066Z,0
2017-07-31T01:05:21.500Z,0
2017-07-31T01:06:22.927Z,0
2017-07-31T01:07:24.367Z,0
2017-07-31T01:08:25.786Z,0
2017-07-31T01:09:27.214Z,0
2017-07-31T01:10:28.635Z,0
2017-07-31T01:11:30.122Z,0
2017-07-31T01:12:31.550Z,0
2017-07-31T01:13:32.993Z,0
2017-07-31T01:14:34.425Z,0
2017-07-31T01:15:35.856Z,0
2017-07-31T01:16:37.283Z,0
2017-07-31T01:17:38.712Z,0
2017-07-31T01:18:40.145Z,0
2017-07-31T01:19:41.572Z,0
2017-07-31T01:20:42.993Z,0
2017-07-31T01:21:44.438Z,0
2017-07-31T01:22:45.976Z,0
2017-07-31T01:23:47.397Z,0
2017-07-31T01:24:48.825Z,0
2017-07-31T01:25:50.252Z,0
2017-07-31T01:26:51.691Z,0
2017-07-31T01:27:53.113Z,0
2017-07-31T01:28:55.524Z,0
2017-07-31T01:29:56.948Z,0
2017-07-31T01:30:58.370Z,0
2017-07-31T01:31:59.800Z,0
2017-07-31T01:33:01.231Z,0
2017-07-31T01:34:02.662Z,0
2017-07-31T01:35:04.084Z,0
2017-07-31T01:36:05.506Z,0
2017-07-31T01:37:06.936Z,0
2017-07-31T01:38:08.361Z,0
2017-07-31T01:39:09.785Z,0
2017-07-31T01:40:11.211Z,0
2017-07-31T01:41:12.631Z,0
2017-07-31T01:42:14.063Z,0
2017-07-31T01:43:15.501Z,0
2017-07-31T01:44:17.359Z,0
2017-07-31T01:45:18.779Z,0
2017-07-31T01:46:20.210Z,0
2017-07-31T01:47:21.638Z,0
2017-07-31T01:48:23.068Z,0
2017-07-31T01:49:24.501Z,0
2017-07-31T01:50:25.922Z,0
2017-07-31T01:51:27.350Z,0
2017-07-31T01:52:28.781Z,0
2017-07-31T01:53:30.212Z,0
2017-07-31T01:54:31.646Z,0
2017-07-31T01:55:33.072Z,0
2017-07-31T01:56:34.571Z,0
2017-07-31T01:57:36.097Z,0
2017-07-31T01:58:37.531Z,0
2017-07-31T01:59:38.949Z,0
2017-07-31T02:00:40.450Z,0
2017-07-31T02:01:41.856Z,0
2017-07-31T02:02:43.287Z,0
2017-07-31T02:03:44.711Z,0
2017-07-31T02:04:46.180Z,0
2017-07-31T02:05:47.615Z,0
2017-07-31T02:06:49.036Z,0
2017-07-31T02:07:50.462Z,0
2017-07-31T02:08:51.914Z,0
2017-07-31T02:09:53.337Z,0
2017-07-31T02:10:54.771Z,0
2017-07-31T02:11:56.201Z,0
2017-07-31T02:12:57.623Z,0
2017-07-31T02:13:59.056Z,0
2017-07-31T02:15:00.481Z,0
2017-07-31T02:16:01.909Z,0
2017-07-31T02:17:03.339Z,0
2017-07-31T02:18:04.761Z,0
2017-07-31T02:19:06.205Z,0
2017-07-31T02:20:07.619Z,0
2017-07-31T02:21:09.036Z,0
2017-07-31T02:22:10.467Z,0
2017-07-31T02:23:11.893Z,0
2017-07-31T02:24:13.323Z,0
2017-07-31T02:25:14.748Z,0
2017-07-31T02:26:16.178Z,0
2017-07-31T02:27:17.609Z,0
2017-07-31T02:28:19.033Z,0
2017-07-31T02:29:20.461Z,0
2017-07-31T02:30:21.897Z,0
2017-07-31T02:31:23.317Z,0
2017-07-31T02:32:24.796Z,0
2017-07-31T02:33:26.216Z,0
2017-07-31T02:34:27.647Z,0
2017-07-31T02:35:29.069Z,0
2017-07-31T02:36:30.504Z,0
2017-07-31T02:37:31.932Z,0
2017-07-31T02:38:33.356Z,0
2017-07-31T02:39:34.783Z,0
2017-07-31T02:40:36.204Z,0
2017-07-31T02:41:37.635Z,0
2017-07-31T02:42:39.058Z,0
2017-07-31T02:43:41.197Z,0
2017-07-31T02:44:42.620Z,0
2017-07-31T02:45:44.052Z,0
2017-07-31T02:46:45.471Z,0
2017-07-31T02:47:46.900Z,0
2017-07-31T02:48:48.330Z,0
2017-07-31T02:49:49.753Z,0
2017-07-31T02:50:51.174Z,0
2017-07-31T02:51:52.615Z,0
2017-07-31T02:52:54.038Z,0
2017-07-31T02:53:55.468Z,0
2017-07-31T02:54:56.888Z,0
2017-07-31T02:55:58.318Z,0
2017-07-31T02:56:59.750Z,0
2017-07-31T02:58:01.177Z,0
2017-07-31T02:59:02.615Z,0
2017-07-31T03:00:04.155Z,0
2017-07-31T03:01:05.575Z,0
2017-07-31T03:02:07.003Z,0
2017-07-31T03:03:08.485Z,0
2017-07-31T03:04:09.920Z,0
2017-07-31T03:05:11.347Z,0
2017-07-31T03:06:12.779Z,0
2017-07-31T03:07:14.209Z,0
2017-07-31T03:08:15.639Z,0
2017-07-31T03:09:17.063Z,0
2017-07-31T03:10:18.493Z,0
2017-07-31T03:11:19.925Z,0
2017-07-31T03:12:21.344Z,0
2017-07-31T03:13:22.773Z,0
2017-07-31T03:14:24.195Z,0
2017-07-31T03:15:25.617Z,0
2017-07-31T03:16:27.042Z,0
2017-07-31T03:17:28.467Z,0
2017-07-31T03:18:29.915Z,0
2017-07-31T03:19:31.319Z,0
2017-07-31T03:20:32.754Z,0
2017-07-31T03:21:34.174Z,0
2017-07-31T03:22:35.599Z,0
2017-07-31T03:23:37.025Z,0
2017-07-31T03:24:38.454Z,0
2017-07-31T03:25:39.892Z,0
2017-07-31T03:26:41.318Z,0
2017-07-31T03:27:42.742Z,0
2017-07-31T03:28:44.167Z,4
2017-07-31T03:29:45.588Z,0
2017-07-31T03:30:47.033Z,0
2017-07-31T03:31:48.460Z,4
2017-07-31T03:32:49.886Z,4
2017-07-31T03:33:51.312Z,0
2017-07-31T03:34:52.750Z,4
2017-07-31T03:35:54.176Z,4
2017-07-31T03:36:55.605Z,4
2017-07-31T03:37:57.037Z,4
2017-07-31T03:38:58.463Z,8
2017-07-31T03:39:59.882Z,8
2017-07-31T03:41:01.314Z,8
2017-07-31T03:42:02.735Z,12
2017-07-31T03:43:04.154Z,12
2017-07-31T03:44:05.585Z,12
2017-07-31T03:45:07.008Z,16
2017-07-31T03:46:08.435Z,16
2017-07-31T03:47:09.918Z,16
2017-07-31T03:48:11.361Z,20
2017-07-31T03:49:12.792Z,24
2017-07-31T03:50:14.214Z,24
2017-07-31T03:51:15.644Z,28
2017-07-31T03:52:17.063Z,32
2017-07-31T03:53:18.492Z,36
2017-07-31T03:54:19.921Z,36
2017-07-31T03:55:21.336Z,40
2017-07-31T03:56:22.765Z,40
2017-07-31T03:57:24.195Z,44
2017-07-31T03:58:25.614Z,48
2017-07-31T03:59:27.034Z,52
2017-07-31T04:00:28.457Z,56
2017-07-31T04:01:29.887Z,60
2017-07-31T04:02:31.312Z,68
2017-07-31T04:03:32.737Z,72
2017-07-31T04:04:34.164Z,76
2017-07-31T04:05:35.592Z,76
2017-07-31T04:06:37.016Z,80
2017-07-31T04:07:38.451Z,84
2017-07-31T04:08:39.879Z,88
2017-07-31T04:09:41.304Z,100
2017-07-31T04:10:42.738Z,104
2017-07-31T04:11:44.168Z,108
2017-07-31T04:12:45.591Z,112
2017-07-31T04:13:47.016Z,116
2017-07-31T04:14:48.445Z,120
2017-07-31T04:15:49.870Z,124
2017-07-31T04:16:51.297Z,132
2017-07-31T04:17:52.716Z,136
2017-07-31T04:18:54.144Z,140
2017-07-31T04:19:55.575Z,144
2017-07-31T04:20:56.997Z,148
2017-07-31T04:21:58.419Z,144
2017-07-31T04:22:59.845Z,148
2017-07-31T04:24:01.278Z,148
2017-07-31T04:25:02.706Z,148
2017-07-31T04:26:04.130Z,160
2017-07-31T04:27:05.551Z,168
2017-07-31T04:28:06.977Z,176
2017-07-31T04:29:08.409Z,184
2017-07-31T04:30:09.840Z,188
2017-07-31T04:31:11.258Z,192
2017-07-31T04:32:12.707Z,200
2017-07-31T04:33:14.133Z,180
2017-07-31T04:34:15.581Z,180
2017-07-31T04:35:17.009Z,180
2017-07-31T04:36:18.440Z,180
2017-07-31T04:37:19.865Z,172
2017-07-31T04:38:21.293Z,160
2017-07-31T04:39:22.718Z,172
2017-07-31T04:40:24.153Z,176
2017-07-31T04:41:25.583Z,176
2017-07-31T04:42:27.011Z,184
2017-07-31T04:43:28.441Z,184
2017-07-31T04:44:29.873Z,172
2017-07-31T04:45:31.297Z,160
2017-07-31T04:46:32.735Z,172
2017-07-31T04:47:34.159Z,184
2017-07-31T04:48:35.583Z,196
2017-07-31T04:49:37.016Z,216
2017-07-31T04:50:38.436Z,224
2017-07-31T04:51:39.870Z,236
2017-07-31T04:52:41.303Z,244
2017-07-31T04:53:42.730Z,260
2017-07-31T04:54:44.164Z,264
2017-07-31T04:55:45.589Z,276
2017-07-31T04:56:47.014Z,268
2017-07-31T04:57:48.439Z,252
2017-07-31T04:58:49.873Z,284
2017-07-31T04:59:51.296Z,292
2017-07-31T05:00:52.727Z,296
2017-07-31T05:01:54.158Z,296
2017-07-31T05:02:55.591Z,300
2017-07-31T05:03:57.023Z,288
2017-07-31T05:04:58.460Z,284
2017-07-31T05:05:59.899Z,300
2017-07-31T05:07:01.320Z,300
2017-07-31T05:08:02.753Z,288
2017-07-31T05:09:04.183Z,296
2017-07-31T05:10:05.609Z,300
2017-07-31T05:11:07.043Z,156
2017-07-31T05:12:08.508Z,196
2017-07-31T05:13:09.948Z,316
2017-07-31T05:14:11.375Z,312
2017-07-31T05:15:12.800Z,332
2017-07-31T05:16:14.266Z,332
2017-07-31T05:17:15.699Z,340
2017-07-31T05:18:17.125Z,340
2017-07-31T05:19:18.557Z,348
2017-07-31T05:20:20.003Z,344
2017-07-31T05:21:21.423Z,340
2017-07-31T05:22:22.853Z,348
2017-07-31T05:23:24.280Z,348
2017-07-31T05:24:25.719Z,352
2017-07-31T05:25:27.147Z,364
2017-07-31T05:26:28.581Z,388
2017-07-31T05:27:30.010Z,396
2017-07-31T05:28:32.058Z,436
2017-07-31T05:29:33.487Z,476
2017-07-31T05:30:34.915Z,504
2017-07-31T05:31:36.379Z,516
2017-07-31T05:32:37.809Z,520
2017-07-31T05:33:39.243Z,524
2017-07-31T05:34:40.667Z,516
2017-07-31T05:35:42.122Z,476
2017-07-31T05:36:43.554Z,480
2017-07-31T05:37:45.158Z,500
2017-07-31T05:38:46.601Z,500
2017-07-31T05:39:48.033Z,488
2017-07-31T05:40:49.462Z,436
2017-07-31T05:41:50.892Z,380
2017-07-31T05:42:52.325Z,400
2017-07-31T05:43:53.755Z,344
2017-07-31T05:44:55.186Z,328
2017-07-31T05:45:56.866Z,284
2017-07-31T05:46:58.300Z,296
2017-07-31T05:47:59.720Z,316
2017-07-31T05:49:01.146Z,308
2017-07-31T05:50:02.582Z,296
2017-07-31T05:51:04.007Z,316
2017-07-31T05:52:05.444Z,332
2017-07-31T05:53:06.872Z,416
2017-07-31T05:54:08.299Z,456
2017-07-31T05:55:09.730Z,488
2017-07-31T05:56:11.168Z,516
2017-07-31T05:57:12.614Z,536
2017-07-31T05:58:14.037Z,512
2017-07-31T05:59:15.613Z,472
2017-07-31T06:00:17.023Z,432
2017-07-31T06:01:18.455Z,408
2017-07-31T06:02:19.886Z,340
2017-07-31T06:03:21.304Z,348
2017-07-31T06:04:22.731Z,380
2017-07-31T06:05:24.840Z,388
2017-07-31T06:06:26.268Z,404
2017-07-31T06:07:29.282Z,400
2017-07-31T06:08:30.710Z,396
2017-07-31T06:09:32.142Z,412
2017-07-31T06:10:33.570Z,448
2017-07-31T06:11:34.999Z,488
2017-07-31T06:12:36.431Z,508
2017-07-31T06:13:37.873Z,480
2017-07-31T06:14:39.307Z,516
2017-07-31T06:15:40.730Z,528
2017-07-31T06:16:42.164Z,532
2017-07-31T06:17:43.595Z,560
2017-07-31T06:18:45.024Z,564
2017-07-31T06:19:46.455Z,560
2017-07-31T06:20:47.884Z,588
2017-07-31T06:21:49.313Z,612
2017-07-31T06:22:52.017Z,624
2017-07-31T06:23:53.448Z,620
2017-07-31T06:24:55.009Z,640
2017-07-31T06:25:56.447Z,600
2017-07-31T06:26:57.891Z,568
2017-07-31T06:27:59.367Z,560
2017-07-31T06:29:00.794Z,544
2017-07-31T06:30:02.270Z,516
2017-07-31T06:31:03.719Z,520
2017-07-31T06:32:05.129Z,540
2017-07-31T06:33:06.561Z,544
2017-07-31T06:34:07.987Z,592
2017-07-31T06:35:09.428Z,612
2017-07-31T06:36:10.861Z,664
2017-07-31T06:37:12.291Z,704
2017-07-31T06:38:13.721Z,760
2017-07-31T06:39:15.149Z,848
2017-07-31T06:40:16.594Z,852
2017-07-31T06:41:18.056Z,908
2017-07-31T06:42:19.490Z,984
2017-07-31T06:43:21.684Z,1120
2017-07-31T06:44:23.111Z,1044
2017-07-31T06:45:24.546Z,980
2017-07-31T06:46:25.968Z,988
2017-07-31T06:47:27.408Z,1016
2017-07-31T06:48:28.838Z,1096
2017-07-31T06:49:30.276Z,1128
2017-07-31T06:50:31.703Z,1092
2017-07-31T06:51:33.136Z,1004
2017-07-31T06:52:34.561Z,1008
2017-07-31T06:53:35.997Z,1060
2017-07-31T06:54:37.435Z,1052
2017-07-31T06:55:38.870Z,1012
2017-07-31T06:56:40.297Z,1044
2017-07-31T06:57:41.736Z,952
2017-07-31T06:58:43.169Z,840
2017-07-31T06:59:44.601Z,852
2017-07-31T07:00:46.036Z,824
2017-07-31T07:01:47.468Z,852
2017-07-31T07:02:48.890Z,884
2017-07-31T07:03:50.320Z,804
2017-07-31T07:04:51.746Z,728
2017-07-31T07:05:53.174Z,700
2017-07-31T07:06:54.602Z,664
2017-07-31T07:07:56.043Z,648
2017-07-31T07:08:57.469Z,680
2017-07-31T07:09:58.899Z,672
2017-07-31T07:11:00.340Z,756
2017-07-31T07:12:01.769Z,744
2017-07-31T07:13:03.201Z,824
2017-07-31T07:14:04.640Z,880
2017-07-31T07:15:06.068Z,924
2017-07-31T07:16:07.504Z,1136
2017-07-31T07:17:08.938Z,1100
2017-07-31T07:18:10.371Z,1000
2017-07-31T07:19:11.800Z,932
2017-07-31T07:20:13.231Z,1088
2017-07-31T07:21:14.661Z,1088
2017-07-31T07:22:16.094Z,988
2017-07-31T07:23:17.522Z,1140
2017-07-31T07:24:18.954Z,840
2017-07-31T07:25:20.381Z,696
2017-07-31T07:26:21.809Z,716
2017-07-31T07:27:23.251Z,732
2017-07-31T07:28:24.676Z,728
2017-07-31T07:29:26.118Z,864
2017-07-31T07:30:27.540Z,744
2017-07-31T07:31:28.974Z,840
2017-07-31T07:32:30.398Z,848
2017-07-31T07:33:31.830Z,712
2017-07-31T07:34:33.257Z,632
2017-07-31T07:35:34.688Z,696
2017-07-31T07:36:36.115Z,856
2017-07-31T07:37:37.541Z,880
2017-07-31T07:38:38.970Z,1052
2017-07-31T07:39:40.410Z,1112
2017-07-31T07:40:41.843Z,984
2017-07-31T07:41:43.270Z,976
2017-07-31T07:42:44.703Z,1080
2017-07-31T07:43:46.139Z,936
2017-07-31T07:44:47.570Z,904
2017-07-31T07:45:49.006Z,1032
2017-07-31T07:46:50.449Z,1004
2017-07-31T07:47:51.885Z,1008
2017-07-31T07:48:53.319Z,940
2017-07-31T07:49:54.753Z,868
2017-07-31T07:50:56.186Z,900
2017-07-31T07:51:57.623Z,884
2017-07-31T07:52:59.049Z,796
2017-07-31T07:54:00.484Z,664
2017-07-31T07:55:02.024Z,624
2017-07-31T07:56:03.462Z,604
2017-07-31T07:57:04.888Z,632
2017-07-31T07:58:06.324Z,588
2017-07-31T07:59:07.754Z,744
2017-07-31T08:00:09.183Z,716
2017-07-31T08:01:10.671Z,740
2017-07-31T08:02:12.213Z,776
2017-07-31T08:03:13.644Z,776
2017-07-31T08:04:15.072Z,748
2017-07-31T08:05:16.500Z,732
2017-07-31T08:06:17.935Z,752
2017-07-31T08:07:19.366Z,792
2017-07-31T08:08:20.797Z,792
2017-07-31T08:09:22.226Z,732
2017-07-31T08:10:23.658Z,756
2017-07-31T08:11:25.089Z,744
2017-07-31T08:12:26.530Z,756
2017-07-31T08:13:27.973Z,744
2017-07-31T08:14:29.403Z,768
2017-07-31T08:15:30.826Z,776
2017-07-31T08:16:32.254Z,788
2017-07-31T08:17:33.694Z,816
2017-07-31T08:18:35.120Z,800
2017-07-31T08:19:36.548Z,788
2017-07-31T08:20:37.980Z,788
2017-07-31T08:21:39.409Z,800
2017-07-31T08:22:40.836Z,792
2017-07-31T08:23:42.268Z,780
2017-07-31T08:24:43.703Z,656
2017-07-31T08:25:45.131Z,784
2017-07-31T08:26:46.563Z,788
2017-07-31T08:27:47.995Z,768
2017-07-31T08:28:49.434Z,768
2017-07-31T08:29:50.873Z,792
2017-07-31T08:30:52.308Z,792
2017-07-31T08:31:53.741Z,816
2017-07-31T08:32:55.184Z,832
2017-07-31T08:33:56.613Z,844
2017-07-31T08:34:58.046Z,848
2017-07-31T08:35:59.471Z,848
2017-07-31T08:37:00.910Z,856
2017-07-31T08:38:02.339Z,872
2017-07-31T08:39:03.779Z,896
2017-07-31T08:40:05.223Z,928
2017-07-31T08:41:06.654Z,940
2017-07-31T08:42:08.086Z,936
2017-07-31T08:43:09.519Z,932
2017-07-31T08:44:10.949Z,928
2017-07-31T08:45:12.383Z,920
2017-07-31T08:46:13.815Z,916
2017-07-31T08:47:15.245Z,932
2017-07-31T08:48:16.683Z,964
2017-07-31T08:49:18.111Z,1008
2017-07-31T08:50:19.549Z,1032
2017-07-31T08:51:20.985Z,1116
2017-07-31T08:52:23.273Z,1216
2017-07-31T08:53:24.703Z,1268
2017-07-31T08:54:26.136Z,1332
2017-07-31T08:55:27.574Z,1324
2017-07-31T08:56:29.001Z,1348
2017-07-31T08:57:30.441Z,1324
2017-07-31T08:58:32.677Z,1288
2017-07-31T08:59:34.122Z,1244
2017-07-31T09:00:35.551Z,1168
2017-07-31T09:01:36.986Z,1080
2017-07-31T09:02:38.422Z,1020
2017-07-31T09:03:39.859Z,1040
2017-07-31T09:04:41.296Z,1012
2017-07-31T09:05:42.734Z,992
2017-07-31T09:06:44.161Z,1064
2017-07-31T09:07:45.591Z,1156
2017-07-31T09:08:47.034Z,1044
2017-07-31T09:09:48.460Z,1100
2017-07-31T09:10:49.901Z,1184
2017-07-31T09:11:51.353Z,1112
2017-07-31T09:12:52.783Z,1128
2017-07-31T09:13:54.222Z,1328
2017-07-31T09:14:55.671Z,1512
2017-07-31T09:15:57.095Z,1504
2017-07-31T09:16:58.528Z,1640
2017-07-31T09:17:59.966Z,1384
2017-07-31T09:19:01.401Z,1476
2017-07-31T09:20:02.832Z,1040
2017-07-31T09:21:04.271Z,1112
2017-07-31T09:22:05.698Z,968
2017-07-31T09:23:07.133Z,1004
2017-07-31T09:24:08.568Z,956
2017-07-31T09:25:10.011Z,1012
2017-07-31T09:26:11.437Z,1536
2017-07-31T09:27:12.884Z,1320
2017-07-31T09:28:14.420Z,1360
2017-07-31T09:29:15.859Z,1540
2017-07-31T09:30:17.292Z,1548
2017-07-31T09:31:18.735Z,1140
2017-07-31T09:32:20.182Z,1248
2017-07-31T09:33:21.614Z,1216
2017-07-31T09:34:23.053Z,1124
2017-07-31T09:35:24.523Z,1032
2017-07-31T09:36:25.949Z,1084
2017-07-31T09:37:27.380Z,1164
2017-07-31T09:38:28.812Z,1124
2017-07-31T09:39:30.249Z,1048
2017-07-31T09:40:31.684Z,1048
2017-07-31T09:41:33.111Z,1060
2017-07-31T09:42:34.556Z,1060
2017-07-31T09:43:35.990Z,1076
2017-07-31T09:44:37.428Z,1104
2017-07-31T09:45:38.882Z,1176
2017-07-31T09:46:40.319Z,1268
2017-07-31T09:47:41.764Z,1304
2017-07-31T09:48:43.203Z,1424
2017-07-31T09:49:44.675Z,1516
2017-07-31T09:50:46.112Z,1508
2017-07-31T09:51:47.540Z,1576
2017-07-31T09:52:48.978Z,1636
2017-07-31T09:53:50.409Z,1540
2017-07-31T09:54:51.858Z,1504
2017-07-31T09:55:53.287Z,1464
2017-07-31T09:56:54.716Z,1448
2017-07-31T09:57:57.134Z,1380
2017-07-31T09:58:58.572Z,1352
2017-07-31T10:00:00.002Z,1432
2017-07-31T10:01:01.438Z,1468
2017-07-31T10:02:02.880Z,1416
2017-07-31T10:03:04.317Z,1412
2017-07-31T10:04:05.748Z,1360
2017-07-31T10:05:07.181Z,1256
2017-07-31T10:06:08.622Z,1220
2017-07-31T10:07:10.054Z,1204
2017-07-31T10:08:11.489Z,1228
2017-07-31T10:09:12.916Z,1296
2017-07-31T10:10:14.349Z,1236
2017-07-31T10:11:15.783Z,1388
2017-07-31T10:12:17.225Z,1484
2017-07-31T10:13:18.664Z,900
2017-07-31T10:14:20.098Z,1332
2017-07-31T10:15:21.541Z,1344
2017-07-31T10:16:22.974Z,1356
2017-07-31T10:17:24.409Z,1364
2017-07-31T10:18:25.846Z,1356
2017-07-31T10:19:27.286Z,1232
2017-07-31T10:20:28.718Z,1156
2017-07-31T10:21:30.154Z,1176
2017-07-31T10:22:31.591Z,688
2017-07-31T10:23:33.027Z,1200
2017-07-31T10:24:34.464Z,1148
2017-07-31T10:25:35.901Z,1192
2017-07-31T10:26:37.345Z,1224
2017-07-31T10:27:38.775Z,1312
2017-07-31T10:28:40.211Z,1280
2017-07-31T10:29:41.650Z,1288
2017-07-31T10:30:43.081Z,1272
2017-07-31T10:31:44.516Z,1296
2017-07-31T10:32:45.949Z,1340
2017-07-31T10:33:47.392Z,1380
2017-07-31T10:34:48.824Z,1440
2017-07-31T10:35:50.264Z,1512
2017-07-31T10:36:51.711Z,1548
2017-07-31T10:37:53.150Z,1636
2017-07-31T10:38:54.584Z,1768
2017-07-31T10:39:56.012Z,2040
2017-07-31T10:40:57.445Z,2252
2017-07-31T10:41:58.894Z,2152
2017-07-31T10:43:00.328Z,2204
2017-07-31T10:44:01.760Z,2344
2017-07-31T10:45:03.201Z,2588
2017-07-31T10:46:04.634Z,2796
2017-07-31T10:47:06.075Z,2788
2017-07-31T10:48:07.520Z,2856
2017-07-31T10:49:08.955Z,2892
2017-07-31T10:50:10.397Z,2608
2017-07-31T10:51:11.839Z,2888
2017-07-31T10:52:13.282Z,2908
2017-07-31T10:53:14.721Z,2880
2017-07-31T10:54:16.164Z,2720
2017-07-31T10:55:17.612Z,2508
2017-07-31T10:56:19.044Z,2660
2017-07-31T10:57:20.481Z,2660
2017-07-31T10:58:21.917Z,2556
2017-07-31T10:59:24.171Z,2480
2017-07-31T11:00:25.604Z,2504
2017-07-31T11:01:27.043Z,2592
2017-07-31T11:02:28.476Z,2644
2017-07-31T11:03:29.918Z,2356
2017-07-31T11:04:31.352Z,2628
2017-07-31T11:05:32.790Z,2608
2017-07-31T11:06:34.225Z,2640
2017-07-31T11:07:35.658Z,2800
2017-07-31T11:08:37.092Z,2664
2017-07-31T11:09:38.528Z,2816
2017-07-31T11:10:39.988Z,2792
2017-07-31T11:11:41.427Z,2404
2017-07-31T11:12:42.870Z,2592
2017-07-31T11:13:44.303Z,2712
2017-07-31T11:14:45.741Z,2844
2017-07-31T11:15:47.183Z,2408
2017-07-31T11:16:48.620Z,2596
2017-07-31T11:17:50.078Z,2804
2017-07-31T11:18:51.846Z,2596
2017-07-31T11:19:53.286Z,2700
2017-07-31T11:20:54.698Z,2948
2017-07-31T11:21:56.136Z,2904
2017-07-31T11:22:57.722Z,2972
2017-07-31T11:24:00.034Z,2772
2017-07-31T11:25:01.471Z,2948
2017-07-31T11:26:02.909Z,3336
2017-07-31T11:27:04.343Z,3156
2017-07-31T11:28:05.781Z,2560
2017-07-31T11:29:07.299Z,2624
2017-07-31T11:30:08.747Z,2228
2017-07-31T11:31:10.189Z,2668
2017-07-31T11:32:11.622Z,2724
2017-07-31T11:33:13.064Z,3204
2017-07-31T11:34:14.519Z,3612
2017-07-31T11:35:17.724Z,3624
2017-07-31T11:36:19.164Z,3064
2017-07-31T11:37:20.599Z,3100
2017-07-31T11:38:22.040Z,3612
2017-07-31T11:39:23.472Z,3604
2017-07-31T11:40:24.913Z,3324
2017-07-31T11:41:26.994Z,3468
2017-07-31T11:42:28.429Z,3692
2017-07-31T11:43:29.878Z,3588
2017-07-31T11:44:31.314Z,3840
2017-07-31T11:45:32.748Z,4348
2017-07-31T11:46:34.396Z,4100
2017-07-31T11:47:35.825Z,3368
2017-07-31T11:48:37.259Z,3124
2017-07-31T11:49:38.702Z,3384
2017-07-31T11:50:40.142Z,3584
2017-07-31T11:51:41.570Z,3200
2017-07-31T11:52:42.994Z,3192
2017-07-31T11:53:44.439Z,2924
2017-07-31T11:54:45.874Z,3024
2017-07-31T11:55:47.310Z,3024
2017-07-31T11:56:48.741Z,2984
2017-07-31T11:57:50.183Z,2984
2017-07-31T11:58:51.626Z,2972
2017-07-31T11:59:53.066Z,2984
2017-07-31T12:00:54.504Z,3048
2017-07-31T12:01:55.941Z,2960
2017-07-31T12:02:57.383Z,3256
2017-07-31T12:03:58.824Z,3248
2017-07-31T12:05:00.267Z,3372
2017-07-31T12:06:01.693Z,3476
2017-07-31T12:07:03.945Z,3036
2017-07-31T12:08:05.371Z,3072
2017-07-31T12:09:06.807Z,2792
2017-07-31T12:10:08.591Z,2676
2017-07-31T12:11:10.086Z,2856
2017-07-31T12:12:11.514Z,2888
2017-07-31T12:13:12.953Z,2840
2017-07-31T12:14:14.385Z,2864
2017-07-31T12:15:15.871Z,2992
2017-07-31T12:16:17.310Z,3400
2017-07-31T12:17:19.096Z,3080
2017-07-31T12:18:20.592Z,3568
2017-07-31T12:19:22.034Z,3612
2017-07-31T12:20:24.064Z,3648
2017-07-31T12:21:25.506Z,3860
2017-07-31T12:22:26.945Z,3516
2017-07-31T12:23:28.383Z,4168
2017-07-31T12:24:29.843Z,3592
2017-07-31T12:25:31.281Z,3712
2017-07-31T12:26:32.720Z,3308
2017-07-31T12:27:34.153Z,3080
2017-07-31T12:28:35.758Z,3104
2017-07-31T12:29:37.167Z,2928
2017-07-31T12:30:38.654Z,2860
2017-07-31T12:31:41.723Z,2904
2017-07-31T12:32:43.139Z,2828
2017-07-31T12:33:44.869Z,2896
2017-07-31T12:34:47.191Z,3048
2017-07-31T12:35:48.623Z,3088
2017-07-31T12:36:50.106Z,2832
2017-07-31T12:37:51.719Z,2644
2017-07-31T12:38:56.317Z,2996
2017-07-31T12:39:57.850Z,3272
2017-07-31T12:40:59.386Z,2480
2017-07-31T12:42:00.786Z,2032
2017-07-31T12:43:02.219Z,2656
2017-07-31T12:44:04.194Z,2596
2017-07-31T12:45:06.226Z,2440
2017-07-31T12:46:07.661Z,2388
2017-07-31T12:47:09.108Z,2368
2017-07-31T12:48:11.201Z,2364
2017-07-31T12:49:12.648Z,2324
2017-07-31T12:50:14.094Z,2308
2017-07-31T12:51:15.616Z,2140
2017-07-31T12:52:17.207Z,2012
2017-07-31T12:53:18.639Z,2300
2017-07-31T12:54:20.084Z,2344
2017-07-31T12:55:21.533Z,2268
2017-07-31T12:56:22.979Z,2416
2017-07-31T12:57:24.646Z,2384
2017-07-31T12:58:26.549Z,2340
2017-07-31T12:59:28.043Z,2260
2017-07-31T13:00:29.490Z,2204
2017-07-31T13:01:31.184Z,2240
2017-07-31T13:02:32.646Z,2288
2017-07-31T13:03:34.696Z,2308
2017-07-31T13:04:36.635Z,2352
2017-07-31T13:05:38.078Z,2480
2017-07-31T13:06:39.517Z,2576
2017-07-31T13:07:40.955Z,2768
2017-07-31T13:08:42.452Z,3116
2017-07-31T13:09:43.893Z,3268
2017-07-31T13:10:45.341Z,3276
2017-07-31T13:11:46.784Z,3532
2017-07-31T13:12:48.227Z,3480
2017-07-31T13:13:49.670Z,3544
2017-07-31T13:14:51.115Z,3408
2017-07-31T13:15:52.559Z,3372
2017-07-31T13:16:53.996Z,3248
2017-07-31T13:17:55.439Z,3488
2017-07-31T13:18:56.872Z,3484
2017-07-31T13:19:58.341Z,3476
2017-07-31T13:20:59.774Z,3484
2017-07-31T13:22:01.208Z,3740
2017-07-31T13:23:02.649Z,3716
2017-07-31T13:24:04.083Z,3668
2017-07-31T13:25:05.523Z,3624
2017-07-31T13:26:06.957Z,3708
2017-07-31T13:27:08.390Z,3584
2017-07-31T13:28:09.833Z,3572
2017-07-31T13:29:11.267Z,3344
2017-07-31T13:30:12.701Z,3024
2017-07-31T13:31:14.231Z,2816
2017-07-31T13:32:15.671Z,2528
2017-07-31T13:33:17.110Z,2316
2017-07-31T13:34:18.545Z,2212
2017-07-31T13:35:19.979Z,2260
2017-07-31T13:36:21.416Z,2248
2017-07-31T13:37:22.848Z,2292
2017-07-31T13:38:24.297Z,2344
2017-07-31T13:39:25.730Z,2488
2017-07-31T13:40:27.170Z,2600
2017-07-31T13:41:28.613Z,2728
2017-07-31T13:42:30.055Z,2672
2017-07-31T13:43:31.501Z,2540
2017-07-31T13:44:32.932Z,2392
2017-07-31T13:45:34.367Z,2340
2017-07-31T13:46:35.815Z,2256
2017-07-31T13:47:37.252Z,2188
2017-07-31T13:48:38.707Z,2316
2017-07-31T13:49:40.233Z,2844
2017-07-31T13:50:41.662Z,3352
2017-07-31T13:51:43.100Z,3628
2017-07-31T13:52:44.575Z,3172
2017-07-31T13:53:46.012Z,3192
2017-07-31T13:54:47.442Z,3264
2017-07-31T13:55:48.880Z,3356
2017-07-31T13:56:50.337Z,3596
2017-07-31T13:57:52.281Z,3456
2017-07-31T13:58:53.712Z,3152
2017-07-31T13:59:56.767Z,2644
2017-07-31T14:00:58.106Z,3276
2017-07-31T14:01:59.551Z,2256
2017-07-31T14:03:00.987Z,2344
2017-07-31T14:04:02.423Z,2028
2017-07-31T14:05:03.863Z,1436
2017-07-31T14:06:05.293Z,1476
2017-07-31T14:07:06.732Z,1980
2017-07-31T14:08:08.164Z,2296
2017-07-31T14:09:09.598Z,2648
2017-07-31T14:10:11.044Z,2816
2017-07-31T14:11:12.483Z,2744